Time,TemperatureF,DewpointF,PressureIn,WindDirection,WindDirectionDegrees,WindSpeedMPH,WindSpeedGustMPH,Humidity,HourlyPrecipIn,Conditions,Clouds,dailyrainin,SoftwareType,DateUTC
2013-01-21 00:00:00,35.1,31.0,30.16,NE,37,1.0,2.0,85,0.00,,,0.00,Wunderground v.1.15,2013-01-21 05:00:00,
2013-01-21 00:02:00,35.2,30.9,30.16,NE,37,1.0,2.0,84,0.00,,,0.00,Wunderground v.1.15,2013-01-21 05:02:00,
2013-01-21 00:04:00,35.2,30.6,30.16,NE,37,1.0,2.0,83,0.00,,,0.00,Wunderground v.1.15,2013-01-21 05:04:00,
2013-01-21 00:08:00,35.4,31.3,30.17,NE,37,1.0,2.0,85,0.00,,,0.00,Wunderground v.1.15,2013-01-21 05:08:00,
2013-01-21 00:14:00,35.3,30.7,30.16,NE,37,0.0,1.0,83,0.00,,,0.00,Wunderground v.1.15,2013-01-21 05:14:00,
2013-01-21 00:19:00,33.9,27.8,30.16,South,191,0.0,0.0,78,0.00,,,0.00,Wunderground v.1.15,2013-01-21 05:19:00,
2013-01-21 00:25:00,33.7,29.1,30.16,South,191,0.0,0.0,83,0.00,,,0.00,Wunderground v.1.15,2013-01-21 05:25:00,
2013-01-21 00:32:00,33.5,28.9,30.16,South,191,0.0,0.0,83,0.00,,,0.00,Wunderground v.1.15,2013-01-21 05:32:00,
2013-01-21 00:38:00,33.7,29.4,30.15,ESE,113,0.0,0.0,84,0.00,,,0.00,Wunderground v.1.15,2013-01-21 05:38:00,
2013-01-21 00:44:00,33.0,25.9,30.15,ENE,61,1.0,2.0,75,0.00,,,0.00,Wunderground v.1.15,2013-01-21 05:44:00,
2013-01-21 00:50:00,32.8,25.4,30.15,NE,44,1.0,1.0,74,0.00,,,0.00,Wunderground v.1.15,2013-01-21 05:50:00,
2013-01-21 00:56:00,32.8,27.0,30.15,NE,41,1.0,2.0,79,0.00,,,0.00,Wunderground v.1.15,2013-01-21 05:56:00,
2013-01-21 01:02:00,33.2,27.1,30.15,NE,39,2.0,3.0,78,0.00,,,0.00,Wunderground v.1.15,2013-01-21 06:02:00,
2013-01-21 01:08:00,33.5,27.7,30.16,NE,39,1.0,3.0,79,0.00,,,0.00,Wunderground v.1.15,2013-01-21 06:08:00,
2013-01-21 01:14:00,33.8,28.6,30.15,North,7,0.0,3.0,81,0.00,,,0.00,Wunderground v.1.15,2013-01-21 06:14:00,
2013-01-21 01:20:00,34.2,29.3,30.16,North,9,0.0,3.0,82,0.00,,,0.00,Wunderground v.1.15,2013-01-21 06:20:00,
2013-01-21 01:26:00,34.4,27.0,30.15,NNE,21,0.0,3.0,74,0.00,,,0.00,Wunderground v.1.15,2013-01-21 06:26:00,
2013-01-21 01:32:00,34.0,26.9,30.15,NNE,19,0.0,3.0,75,0.00,,,0.00,Wunderground v.1.15,2013-01-21 06:32:00,
2013-01-21 01:37:00,33.8,28.0,30.15,NNE,19,0.0,3.0,79,0.00,,,0.00,Wunderground v.1.15,2013-01-21 06:37:00,
2013-01-21 01:43:00,33.8,27.4,30.15,NNE,19,0.0,3.0,77,0.00,,,0.00,Wunderground v.1.15,2013-01-21 06:43:00,
2013-01-21 01:50:00,32.4,25.7,30.15,NE,51,1.0,3.0,76,0.00,,,0.00,Wunderground v.1.15,2013-01-21 06:50:00,
2013-01-21 01:56:00,32.4,24.7,30.16,NE,36,2.0,3.0,73,0.00,,,0.00,Wunderground v.1.15,2013-01-21 06:56:00,
2013-01-21 02:02:00,33.0,26.9,30.16,NE,36,1.0,3.0,78,0.00,,,0.00,Wunderground v.1.15,2013-01-21 07:02:00,
2013-01-21 02:08:00,33.2,24.5,30.16,NE,35,0.0,3.0,70,0.00,,,0.00,Wunderground v.1.15,2013-01-21 07:08:00,
2013-01-21 02:14:00,33.1,24.4,30.16,NE,36,0.0,3.0,70,0.00,,,0.00,Wunderground v.1.15,2013-01-21 07:14:00,
2013-01-21 02:20:00,32.3,25.6,30.16,NE,36,0.0,3.0,76,0.00,,,0.00,Wunderground v.1.15,2013-01-21 07:20:00,
2013-01-21 02:26:00,31.3,24.3,30.16,NE,36,0.0,3.0,75,0.00,,,0.00,Wunderground v.1.15,2013-01-21 07:26:00,
2013-01-21 02:34:00,31.5,24.2,30.16,NE,35,0.0,3.0,74,0.00,,,0.00,Wunderground v.1.15,2013-01-21 07:34:00,
2013-01-21 02:40:00,31.2,23.9,30.16,NE,35,0.0,3.0,74,0.00,,,0.00,Wunderground v.1.15,2013-01-21 07:40:00,
2013-01-21 02:46:00,31.3,24.3,30.16,NE,34,0.0,3.0,75,0.00,,,0.00,Wunderground v.1.15,2013-01-21 07:46:00,
2013-01-21 02:54:00,31.6,24.3,30.16,NE,34,0.0,3.0,74,0.00,,,0.00,Wunderground v.1.15,2013-01-21 07:54:00,
2013-01-21 03:00:00,31.6,23.9,30.15,NE,34,0.0,3.0,73,0.00,,,0.00,Wunderground v.1.15,2013-01-21 08:00:00,
2013-01-21 03:06:00,31.5,23.5,30.15,NE,34,0.0,3.0,72,0.00,,,0.00,Wunderground v.1.15,2013-01-21 08:06:00,
2013-01-21 03:12:00,31.4,24.1,30.15,NE,34,0.0,3.0,74,0.00,,,0.00,Wunderground v.1.15,2013-01-21 08:12:00,
2013-01-21 03:18:00,31.2,24.2,30.15,NE,34,0.0,3.0,75,0.00,,,0.00,Wunderground v.1.15,2013-01-21 08:18:00,
2013-01-21 03:24:00,31.3,24.3,30.15,NE,34,0.0,3.0,75,0.00,,,0.00,Wunderground v.1.15,2013-01-21 08:24:00,
2013-01-21 03:30:00,31.2,23.5,30.15,NE,44,1.0,3.0,73,0.00,,,0.00,Wunderground v.1.15,2013-01-21 08:30:00,
2013-01-21 03:36:00,31.5,23.5,30.15,NE,40,1.0,3.0,72,0.00,,,0.00,Wunderground v.1.15,2013-01-21 08:36:00,
2013-01-21 03:41:00,31.3,23.6,30.15,NE,39,0.0,3.0,73,0.00,,,0.00,Wunderground v.1.15,2013-01-21 08:41:00,
2013-01-21 03:48:00,31.6,23.9,30.15,NE,39,0.0,3.0,73,0.00,,,0.00,Wunderground v.1.15,2013-01-21 08:48:00,
2013-01-21 03:54:00,31.3,24.6,30.15,NE,47,1.0,3.0,76,0.00,,,0.00,Wunderground v.1.15,2013-01-21 08:54:00,
2013-01-21 04:00:00,31.1,24.7,30.14,NE,47,1.0,1.0,77,0.00,,,0.00,Wunderground v.1.15,2013-01-21 09:00:00,
2013-01-21 04:05:00,30.8,25.1,30.15,NE,47,0.0,3.0,79,0.00,,,0.00,Wunderground v.1.15,2013-01-21 09:05:00,
2013-01-21 04:12:00,30.6,26.1,30.14,NE,46,0.0,3.0,83,0.00,,,0.00,Wunderground v.1.15,2013-01-21 09:12:00,
2013-01-21 04:17:00,30.6,26.6,30.14,NE,47,0.0,3.0,85,0.00,,,0.00,Wunderground v.1.15,2013-01-21 09:17:00,
2013-01-21 04:24:00,30.1,26.4,30.14,NE,47,0.0,3.0,86,0.00,,,0.00,Wunderground v.1.15,2013-01-21 09:24:00,
2013-01-21 04:30:00,30.7,25.9,30.14,NE,47,0.0,3.0,82,0.00,,,0.00,Wunderground v.1.15,2013-01-21 09:30:00,
2013-01-21 04:36:00,30.9,25.8,30.14,NE,46,1.0,3.0,81,0.00,,,0.00,Wunderground v.1.15,2013-01-21 09:36:00,
2013-01-21 04:42:00,30.8,25.7,30.14,NE,44,0.0,3.0,81,0.00,,,0.00,Wunderground v.1.15,2013-01-21 09:42:00,
2013-01-21 04:47:00,30.8,25.7,30.14,NE,44,0.0,3.0,81,0.00,,,0.00,Wunderground v.1.15,2013-01-21 09:47:00,
2013-01-21 04:53:00,30.6,26.1,30.14,NE,44,0.0,3.0,83,0.00,,,0.00,Wunderground v.1.15,2013-01-21 09:53:00,
2013-01-21 05:00:00,30.1,25.3,30.14,NE,44,0.0,3.0,82,0.00,,,0.00,Wunderground v.1.15,2013-01-21 10:00:00,
2013-01-21 05:06:00,29.6,24.8,30.13,NE,44,0.0,3.0,82,0.00,,,0.00,Wunderground v.1.15,2013-01-21 10:06:00,
2013-01-21 05:11:00,29.6,25.9,30.13,NW,325,0.0,3.0,86,0.00,,,0.00,Wunderground v.1.15,2013-01-21 10:11:00,
2013-01-21 05:17:00,30.1,26.1,30.13,NW,316,0.0,3.0,85,0.00,,,0.00,Wunderground v.1.15,2013-01-21 10:17:00,
2013-01-21 05:24:00,30.3,25.5,30.13,NNE,30,0.0,3.0,82,0.00,,,0.00,Wunderground v.1.15,2013-01-21 10:24:00,
2013-01-21 05:30:00,30.6,26.3,30.13,NNE,30,0.0,3.0,84,0.00,,,0.00,Wunderground v.1.15,2013-01-21 10:30:00,
2013-01-21 05:36:00,30.6,26.9,30.13,West,267,0.0,3.0,86,0.00,,,0.00,Wunderground v.1.15,2013-01-21 10:36:00,
2013-01-21 05:42:00,30.2,25.9,30.13,West,268,0.0,3.0,84,0.00,,,0.00,Wunderground v.1.15,2013-01-21 10:42:00,
2013-01-21 05:48:00,30.1,25.8,30.13,NE,47,0.0,3.0,84,0.00,,,0.00,Wunderground v.1.15,2013-01-21 10:48:00,
2013-01-21 05:53:00,29.5,23.2,30.13,NE,40,1.0,3.0,77,0.00,,,0.00,Wunderground v.1.15,2013-01-21 10:53:00,
2013-01-21 06:00:00,29.4,23.4,30.13,ENE,60,1.0,3.0,78,0.00,,,0.00,Wunderground v.1.15,2013-01-21 11:00:00,
2013-01-21 06:06:00,29.2,23.5,30.13,NW,319,1.0,3.0,79,0.00,,,0.00,Wunderground v.1.15,2013-01-21 11:06:00,
2013-01-21 06:12:00,29.3,23.6,30.13,NNW,330,0.0,3.0,79,0.00,,,0.00,Wunderground v.1.15,2013-01-21 11:12:00,
2013-01-21 06:18:00,29.0,23.6,30.13,ENE,61,1.0,3.0,80,0.00,,,0.00,Wunderground v.1.15,2013-01-21 11:18:00,
2013-01-21 06:24:00,29.0,23.3,30.14,NNE,17,1.0,3.0,79,0.00,,,0.00,Wunderground v.1.15,2013-01-21 11:24:00,
2013-01-21 06:30:00,29.6,24.8,30.14,NNW,347,1.0,1.0,82,0.00,,,0.00,Wunderground v.1.15,2013-01-21 11:30:00,
2013-01-21 06:36:00,29.4,24.3,30.14,NNW,347,0.0,3.0,81,0.00,,,0.00,Wunderground v.1.15,2013-01-21 11:36:00,
2013-01-21 06:42:00,28.9,22.9,30.14,NNW,347,0.0,3.0,78,0.00,,,0.00,Wunderground v.1.15,2013-01-21 11:42:00,
2013-01-21 06:48:00,28.6,22.9,30.14,NNW,347,0.0,3.0,79,0.00,,,0.00,Wunderground v.1.15,2013-01-21 11:48:00,
2013-01-21 06:53:00,28.5,24.0,30.14,NNW,347,0.0,3.0,83,0.00,,,0.00,Wunderground v.1.15,2013-01-21 11:53:00,
2013-01-21 07:00:00,28.5,24.0,30.14,West,271,0.0,3.0,83,0.00,,,0.00,Wunderground v.1.15,2013-01-21 12:00:00,
2013-01-21 07:06:00,29.1,24.0,30.15,NNW,339,0.0,3.0,81,0.00,,,0.00,Wunderground v.1.15,2013-01-21 12:06:00,
2013-01-21 07:12:00,29.3,23.9,30.14,NNW,335,0.0,3.0,80,0.00,,,0.00,Wunderground v.1.15,2013-01-21 12:12:00,
2013-01-21 07:18:00,29.5,23.8,30.15,NNW,342,0.0,3.0,79,0.00,,,0.00,Wunderground v.1.15,2013-01-21 12:18:00,
2013-01-21 07:24:00,29.4,23.4,30.15,NE,39,0.0,3.0,78,0.00,,,0.00,Wunderground v.1.15,2013-01-21 12:24:00,
2013-01-21 07:30:00,29.0,23.3,30.16,NNE,25,1.0,3.0,79,0.00,,,0.00,Wunderground v.1.15,2013-01-21 12:30:00,
2013-01-21 07:36:00,29.1,23.1,30.16,NNE,19,1.0,3.0,78,0.00,,,0.00,Wunderground v.1.15,2013-01-21 12:36:00,
2013-01-21 07:42:00,28.9,22.9,30.16,NNW,343,0.0,3.0,78,0.00,,,0.00,Wunderground v.1.15,2013-01-21 12:42:00,
2013-01-21 07:48:00,28.8,23.1,30.16,NNE,31,1.0,3.0,79,0.00,,,0.00,Wunderground v.1.15,2013-01-21 12:48:00,
2013-01-21 07:54:00,29.2,23.5,30.16,NNE,29,1.0,3.0,79,0.00,,,0.00,Wunderground v.1.15,2013-01-21 12:54:00,
2013-01-21 08:00:00,29.5,23.5,30.16,NNE,29,0.0,3.0,78,0.00,,,0.00,Wunderground v.1.15,2013-01-21 13:00:00,
2013-01-21 08:06:00,30.2,24.2,30.16,NNE,26,0.0,3.0,78,0.00,,,0.00,Wunderground v.1.15,2013-01-21 13:06:00,
2013-01-21 08:12:00,30.5,24.1,30.16,NNE,26,0.0,3.0,77,0.00,,,0.00,Wunderground v.1.15,2013-01-21 13:12:00,
2013-01-21 08:18:00,31.0,24.6,30.16,NW,326,0.0,3.0,77,0.00,,,0.00,Wunderground v.1.15,2013-01-21 13:18:00,
2013-01-21 08:24:00,31.7,24.7,30.17,North,349,0.0,3.0,75,0.00,,,0.00,Wunderground v.1.15,2013-01-21 13:24:00,
2013-01-21 08:30:00,32.1,25.1,30.17,North,352,0.0,3.0,75,0.00,,,0.00,Wunderground v.1.15,2013-01-21 13:30:00,
2013-01-21 08:36:00,32.7,25.3,30.17,North,352,0.0,3.0,74,0.00,,,0.00,Wunderground v.1.15,2013-01-21 13:36:00,
2013-01-21 08:42:00,33.2,24.8,30.17,North,354,0.0,3.0,71,0.00,,,0.00,Wunderground v.1.15,2013-01-21 13:42:00,
2013-01-21 08:47:00,33.7,25.0,30.17,North,11,0.0,3.0,70,0.00,,,0.00,Wunderground v.1.15,2013-01-21 13:47:00,
2013-01-21 08:54:00,34.3,25.2,30.18,North,1,1.0,3.0,69,0.00,,,0.00,Wunderground v.1.15,2013-01-21 13:54:00,
2013-01-21 09:00:00,34.8,26.4,30.17,NW,309,1.0,1.0,71,0.00,,,0.00,Wunderground v.1.15,2013-01-21 14:00:00,
2013-01-21 09:06:00,35.4,26.2,30.18,NW,306,1.0,3.0,69,0.00,,,0.00,Wunderground v.1.15,2013-01-21 14:06:00,
2013-01-21 09:12:00,35.8,26.3,30.18,NW,321,1.0,3.0,68,0.00,,,0.00,Wunderground v.1.15,2013-01-21 14:12:00,
2013-01-21 09:18:00,36.1,26.2,30.18,NW,317,1.0,3.0,67,0.00,,,0.00,Wunderground v.1.15,2013-01-21 14:18:00,
2013-01-21 09:24:00,36.2,26.3,30.18,NW,309,2.0,3.0,67,0.00,,,0.00,Wunderground v.1.15,2013-01-21 14:24:00,
2013-01-21 09:30:00,36.6,26.7,30.19,NW,318,2.0,3.0,67,0.00,,,0.00,Wunderground v.1.15,2013-01-21 14:30:00,
2013-01-21 09:36:00,37.3,27.7,30.19,North,11,2.0,7.0,68,0.00,,,0.00,Wunderground v.1.15,2013-01-21 14:36:00,
2013-01-21 09:42:00,38.3,24.0,30.20,NNE,29,4.0,8.0,56,0.00,,,0.00,Wunderground v.1.15,2013-01-21 14:42:00,
2013-01-21 09:48:00,38.7,22.1,30.19,North,11,7.0,8.0,51,0.00,,,0.00,Wunderground v.1.15,2013-01-21 14:48:00,
2013-01-21 09:54:00,39.0,22.4,30.19,NNE,25,7.0,8.0,51,0.00,,,0.00,Wunderground v.1.15,2013-01-21 14:54:00,
2013-01-21 10:00:00,39.4,22.8,30.19,NE,39,6.0,6.0,51,0.00,,,0.00,Wunderground v.1.15,2013-01-21 15:00:00,
2013-01-21 10:06:00,39.7,21.1,30.20,NE,35,7.0,11.0,47,0.00,,,0.00,Wunderground v.1.15,2013-01-21 15:06:00,
2013-01-21 10:12:00,39.8,20.2,30.20,NNE,27,9.0,9.0,45,0.00,,,0.00,Wunderground v.1.15,2013-01-21 15:12:00,
2013-01-21 10:17:00,39.5,19.9,30.20,NE,41,10.0,11.0,45,0.00,,,0.00,Wunderground v.1.15,2013-01-21 15:17:00,
2013-01-21 10:24:00,39.5,19.9,30.21,NNE,33,11.0,12.0,45,0.00,,,0.00,Wunderground v.1.15,2013-01-21 15:24:00,
2013-01-21 10:30:00,39.7,19.5,30.20,ENE,69,10.0,12.0,44,0.00,,,0.00,Wunderground v.1.15,2013-01-21 15:30:00,
2013-01-21 10:36:00,39.7,17.9,30.20,NNE,25,10.0,17.0,41,0.00,,,0.00,Wunderground v.1.15,2013-01-21 15:36:00,
2013-01-21 10:42:00,39.8,15.0,30.20,NE,55,12.0,12.0,36,0.00,,,0.00,Wunderground v.1.15,2013-01-21 15:42:00,
2013-01-21 10:48:00,40.0,15.8,30.20,ENE,72,11.0,15.0,37,0.00,,,0.00,Wunderground v.1.15,2013-01-21 15:48:00,
2013-01-21 10:54:00,40.3,16.1,30.20,NNE,32,10.0,16.0,37,0.00,,,0.00,Wunderground v.1.15,2013-01-21 15:54:00,
2013-01-21 11:00:00,40.5,17.5,30.20,NNE,29,10.0,10.0,39,0.00,,,0.00,Wunderground v.1.15,2013-01-21 16:00:00,
2013-01-21 11:06:00,40.7,16.4,30.20,NE,46,9.0,14.0,37,0.00,,,0.00,Wunderground v.1.15,2013-01-21 16:06:00,
2013-01-21 11:12:00,40.9,18.4,30.20,North,5,9.0,11.0,40,0.00,,,0.00,Wunderground v.1.15,2013-01-21 16:12:00,
2013-01-21 11:17:00,41.1,16.1,30.19,North,8,9.0,12.0,36,0.00,,,0.00,Wunderground v.1.15,2013-01-21 16:17:00,
2013-01-21 11:24:00,41.9,17.5,30.19,NNE,20,9.0,12.0,37,0.00,,,0.00,Wunderground v.1.15,2013-01-21 16:24:00,
2013-01-21 11:30:00,42.2,15.1,30.19,NNE,27,9.0,12.0,33,0.00,,,0.00,Wunderground v.1.15,2013-01-21 16:30:00,
2013-01-21 11:36:00,42.3,16.6,30.19,NNE,32,11.0,13.0,35,0.00,,,0.00,Wunderground v.1.15,2013-01-21 16:36:00,
2013-01-21 11:42:00,42.3,15.2,30.19,NE,43,12.0,17.0,33,0.00,,,0.00,Wunderground v.1.15,2013-01-21 16:42:00,
2013-01-21 11:48:00,42.5,15.4,30.19,ENE,66,11.0,17.0,33,0.00,,,0.00,Wunderground v.1.15,2013-01-21 16:48:00,
2013-01-21 11:54:00,42.2,16.5,30.19,NNE,24,11.0,13.0,35,0.00,,,0.00,Wunderground v.1.15,2013-01-21 16:54:00,
2013-01-21 12:00:00,42.8,18.3,30.18,NNE,27,11.0,16.0,37,0.00,,,0.00,Wunderground v.1.15,2013-01-21 17:00:00,
2013-01-21 12:06:00,42.5,16.1,30.18,NE,37,13.0,18.0,34,0.00,,,0.00,Wunderground v.1.15,2013-01-21 17:06:00,
2013-01-21 12:12:00,42.4,16.6,30.17,NNE,18,16.0,16.0,35,0.00,,,0.00,Wunderground v.1.15,2013-01-21 17:12:00,
2013-01-21 12:18:00,42.5,15.4,30.17,NNE,26,14.0,16.0,33,0.00,,,0.00,Wunderground v.1.15,2013-01-21 17:18:00,
2013-01-21 12:24:00,42.9,15.7,30.17,ENE,69,11.0,13.0,33,0.00,,,0.00,Wunderground v.1.15,2013-01-21 17:24:00,
2013-01-21 12:30:00,43.1,13.7,30.16,NE,43,11.0,11.0,30,0.00,,,0.00,Wunderground v.1.15,2013-01-21 17:30:00,
2013-01-21 12:35:00,42.7,11.8,30.15,NE,48,13.0,16.0,28,0.00,,,0.00,Wunderground v.1.15,2013-01-21 17:35:00,
2013-01-21 12:42:00,42.7,12.6,30.15,NNE,32,14.0,17.0,29,0.00,,,0.00,Wunderground v.1.15,2013-01-21 17:42:00,
2013-01-21 12:48:00,42.2,12.9,30.15,NNE,25,14.0,17.0,30,0.00,,,0.00,Wunderground v.1.15,2013-01-21 17:48:00,
2013-01-21 12:54:00,42.2,13.7,30.14,ENE,63,15.0,23.0,31,0.00,,,0.00,Wunderground v.1.15,2013-01-21 17:54:00,
2013-01-21 13:00:00,42.3,14.5,30.15,ENE,74,15.0,15.0,32,0.00,,,0.00,Wunderground v.1.15,2013-01-21 18:00:00,
2013-01-21 13:06:00,42.5,14.7,30.15,NNE,24,12.0,24.0,32,0.00,,,0.00,Wunderground v.1.15,2013-01-21 18:06:00,
2013-01-21 13:12:00,42.3,14.5,30.14,NNW,344,14.0,18.0,32,0.00,,,0.00,Wunderground v.1.15,2013-01-21 18:12:00,
2013-01-21 13:18:00,42.2,14.4,30.14,NE,51,15.0,18.0,32,0.00,,,0.00,Wunderground v.1.15,2013-01-21 18:18:00,
2013-01-21 13:24:00,42.1,14.3,30.14,NE,39,14.0,18.0,32,0.00,,,0.00,Wunderground v.1.15,2013-01-21 18:24:00,
2013-01-21 13:30:00,42.0,14.2,30.14,East,97,13.0,15.0,32,0.00,,,0.00,Wunderground v.1.15,2013-01-21 18:30:00,
2013-01-21 13:35:00,42.1,15.7,30.14,NNE,31,13.0,16.0,34,0.00,,,0.00,Wunderground v.1.15,2013-01-21 18:35:00,
2013-01-21 13:42:00,42.1,15.7,30.14,NE,44,13.0,14.0,34,0.00,,,0.00,Wunderground v.1.15,2013-01-21 18:42:00,
2013-01-21 13:47:00,42.2,16.5,30.13,NE,37,13.0,17.0,35,0.00,,,0.00,Wunderground v.1.15,2013-01-21 18:47:00,
2013-01-21 13:54:00,42.1,16.4,30.13,ENE,66,14.0,20.0,35,0.00,,,0.00,Wunderground v.1.15,2013-01-21 18:54:00,
2013-01-21 14:00:00,42.6,17.5,30.13,NE,48,11.0,21.0,36,0.00,,,0.00,Wunderground v.1.15,2013-01-21 19:00:00,
2013-01-21 14:08:00,42.8,16.3,30.14,NE,51,11.0,21.0,34,0.00,,,0.00,Wunderground v.1.15,2013-01-21 19:08:00,
2013-01-21 14:14:00,42.8,18.3,30.14,NE,37,14.0,16.0,37,0.00,,,0.00,Wunderground v.1.15,2013-01-21 19:14:00,
2013-01-21 14:20:00,42.9,18.4,30.14,NNE,22,13.0,13.0,37,0.00,,,0.00,Wunderground v.1.15,2013-01-21 19:20:00,
2013-01-21 14:25:00,43.0,17.2,30.14,NNE,27,12.0,13.0,35,0.00,,,0.00,Wunderground v.1.15,2013-01-21 19:25:00,
2013-01-21 14:32:00,43.1,17.3,30.13,North,11,10.0,14.0,35,0.00,,,0.00,Wunderground v.1.15,2013-01-21 19:32:00,
2013-01-21 14:38:00,43.6,17.7,30.13,NE,46,10.0,14.0,35,0.00,,,0.00,Wunderground v.1.15,2013-01-21 19:38:00,
2013-01-21 14:44:00,44.1,18.2,30.14,North,1,8.0,9.0,35,0.00,,,0.00,Wunderground v.1.15,2013-01-21 19:44:00,
2013-01-21 14:50:00,44.2,16.2,30.13,NE,42,10.0,13.0,32,0.00,,,0.00,Wunderground v.1.15,2013-01-21 19:50:00,
2013-01-21 14:56:00,44.1,16.8,30.13,NE,45,13.0,16.0,33,0.00,,,0.00,Wunderground v.1.15,2013-01-21 19:56:00,
2013-01-21 15:02:00,44.3,16.3,30.13,NNE,23,12.0,15.0,32,0.00,,,0.00,Wunderground v.1.15,2013-01-21 20:02:00,
2013-01-21 15:08:00,44.6,16.5,30.13,NE,56,12.0,15.0,32,0.00,,,0.00,Wunderground v.1.15,2013-01-21 20:08:00,
2013-01-21 15:14:00,44.7,14.3,30.12,NNE,20,10.0,13.0,29,0.00,,,0.00,Wunderground v.1.15,2013-01-21 20:14:00,
2013-01-21 15:20:00,44.7,14.3,30.13,North,360,11.0,16.0,29,0.00,,,0.00,Wunderground v.1.15,2013-01-21 20:20:00,
2013-01-21 15:25:00,44.5,14.9,30.13,NNE,22,13.0,20.0,30,0.00,,,0.00,Wunderground v.1.15,2013-01-21 20:25:00,
2013-01-21 15:32:00,44.5,14.9,30.13,NE,43,12.0,13.0,30,0.00,,,0.00,Wunderground v.1.15,2013-01-21 20:32:00,
2013-01-21 15:37:00,44.3,14.0,30.13,NNE,23,12.0,17.0,29,0.00,,,0.00,Wunderground v.1.15,2013-01-21 20:37:00,
2013-01-21 15:44:00,44.2,14.7,30.13,North,7,15.0,18.0,30,0.00,,,0.00,Wunderground v.1.15,2013-01-21 20:44:00,
2013-01-21 15:50:00,44.2,14.7,30.12,East,83,15.0,15.0,30,0.00,,,0.00,Wunderground v.1.15,2013-01-21 20:50:00,
2013-01-21 15:56:00,44.1,13.8,30.13,NNE,33,15.0,17.0,29,0.00,,,0.00,Wunderground v.1.15,2013-01-21 20:56:00,
2013-01-21 16:02:00,44.2,14.7,30.13,NNE,25,14.0,14.0,30,0.00,,,0.00,Wunderground v.1.15,2013-01-21 21:02:00,
2013-01-21 16:07:00,44.1,14.6,30.13,NNE,26,14.0,22.0,30,0.00,,,0.00,Wunderground v.1.15,2013-01-21 21:07:00,
2013-01-21 16:14:00,43.8,15.1,30.13,North,11,19.0,24.0,31,0.00,,,0.00,Wunderground v.1.15,2013-01-21 21:14:00,
2013-01-21 16:20:00,43.5,14.8,30.14,NE,47,19.0,19.0,31,0.00,,,0.00,Wunderground v.1.15,2013-01-21 21:20:00,
2013-01-21 16:26:00,43.4,16.2,30.14,NE,37,18.0,20.0,33,0.00,,,0.00,Wunderground v.1.15,2013-01-21 21:26:00,
2013-01-21 16:32:00,43.3,15.4,30.14,NNE,16,14.0,16.0,32,0.00,,,0.00,Wunderground v.1.15,2013-01-21 21:32:00,
2013-01-21 16:38:00,43.2,15.3,30.14,NE,41,13.0,16.0,32,0.00,,,0.00,Wunderground v.1.15,2013-01-21 21:38:00,
2013-01-21 16:43:00,43.1,15.9,30.14,NE,38,13.0,16.0,33,0.00,,,0.00,Wunderground v.1.15,2013-01-21 21:43:00,
2013-01-21 16:49:00,43.0,15.8,30.14,NNE,30,13.0,14.0,33,0.00,,,0.00,Wunderground v.1.15,2013-01-21 21:49:00,
2013-01-21 16:56:00,43.0,16.5,30.14,North,11,12.0,14.0,34,0.00,,,0.00,Wunderground v.1.15,2013-01-21 21:56:00,
2013-01-21 17:02:00,42.8,16.3,30.14,NNE,19,11.0,16.0,34,0.00,,,0.00,Wunderground v.1.15,2013-01-21 22:02:00,
2013-01-21 17:08:00,42.7,16.2,30.14,NNE,32,12.0,16.0,34,0.00,,,0.00,Wunderground v.1.15,2013-01-21 22:08:00,
2013-01-21 17:14:00,42.4,16.0,30.14,ESE,110,12.0,16.0,34,0.00,,,0.00,Wunderground v.1.15,2013-01-21 22:14:00,
2013-01-21 17:20:00,42.0,16.3,30.14,NE,41,13.0,13.0,35,0.00,,,0.00,Wunderground v.1.15,2013-01-21 22:20:00,
2013-01-21 17:25:00,41.5,15.8,30.14,NE,34,13.0,20.0,35,0.00,,,0.00,Wunderground v.1.15,2013-01-21 22:25:00,
2013-01-21 17:32:00,41.1,15.5,30.14,NE,34,14.0,14.0,35,0.00,,,0.00,Wunderground v.1.15,2013-01-21 22:32:00,
2013-01-21 17:38:00,40.5,15.6,30.14,NE,44,13.0,16.0,36,0.00,,,0.00,Wunderground v.1.15,2013-01-21 22:38:00,
2013-01-21 17:44:00,39.9,15.7,30.14,NE,37,11.0,12.0,37,0.00,,,0.00,Wunderground v.1.15,2013-01-21 22:44:00,
2013-01-21 17:50:00,39.6,16.0,30.15,NE,49,10.0,10.0,38,0.00,,,0.00,Wunderground v.1.15,2013-01-21 22:50:00,
2013-01-21 17:56:00,39.3,15.8,30.14,NNE,18,9.0,13.0,38,0.00,,,0.00,Wunderground v.1.15,2013-01-21 22:56:00,
2013-01-21 18:02:00,39.2,15.7,30.15,NNE,22,10.0,11.0,38,0.00,,,0.00,Wunderground v.1.15,2013-01-21 23:02:00,
2013-01-21 18:07:00,38.9,13.5,30.15,NNE,29,12.0,15.0,35,0.00,,,0.00,Wunderground v.1.15,2013-01-21 23:07:00,
2013-01-21 18:13:00,38.6,12.6,30.16,NE,37,15.0,15.0,34,0.00,,,0.00,Wunderground v.1.15,2013-01-21 23:13:00,
2013-01-21 18:20:00,38.4,11.8,30.16,NNE,20,16.0,16.0,33,0.00,,,0.00,Wunderground v.1.15,2013-01-21 23:20:00,
2013-01-21 18:26:00,38.1,12.2,30.15,NE,36,16.0,16.0,34,0.00,,,0.00,Wunderground v.1.15,2013-01-21 23:26:00,
2013-01-21 18:32:00,37.7,12.5,30.16,NE,37,13.0,14.0,35,0.00,,,0.00,Wunderground v.1.15,2013-01-21 23:32:00,
2013-01-21 18:38:00,37.7,11.8,30.16,NE,39,13.0,22.0,34,0.00,,,0.00,Wunderground v.1.15,2013-01-21 23:38:00,
2013-01-21 18:44:00,37.7,9.7,30.16,NE,41,15.0,18.0,31,0.00,,,0.00,Wunderground v.1.15,2013-01-21 23:44:00,
2013-01-21 18:50:00,37.5,11.0,30.17,NNE,24,14.0,14.0,33,0.00,,,0.00,Wunderground v.1.15,2013-01-21 23:50:00,
2013-01-21 18:55:00,37.3,12.1,30.17,NE,34,14.0,20.0,35,0.00,,,0.00,Wunderground v.1.15,2013-01-21 23:55:00,
2013-01-21 19:02:00,36.9,11.1,30.16,NNE,29,14.0,14.0,34,0.00,,,0.00,Wunderground v.1.15,2013-01-22 00:02:00,
2013-01-21 19:08:00,36.7,9.6,30.17,NE,55,12.0,14.0,32,0.00,,,0.00,Wunderground v.1.15,2013-01-22 00:08:00,
2013-01-21 19:14:00,36.3,9.9,30.17,NNE,32,10.0,12.0,33,0.00,,,0.00,Wunderground v.1.15,2013-01-22 00:14:00,
2013-01-21 19:20:00,35.9,10.2,30.18,NNE,20,8.0,9.0,34,0.00,,,0.00,Wunderground v.1.15,2013-01-22 00:20:00,
2013-01-21 19:26:00,35.6,10.6,30.18,North,352,7.0,9.0,35,0.00,,,0.00,Wunderground v.1.15,2013-01-22 00:26:00,
2013-01-21 19:32:00,35.4,11.1,30.18,NNE,21,8.0,10.0,36,0.00,,,0.00,Wunderground v.1.15,2013-01-22 00:32:00,
2013-01-21 19:38:00,35.1,11.4,30.18,NNE,31,9.0,10.0,37,0.00,,,0.00,Wunderground v.1.15,2013-01-22 00:38:00,
2013-01-21 19:44:00,34.8,11.7,30.18,NNE,29,8.0,9.0,38,0.00,,,0.00,Wunderground v.1.15,2013-01-22 00:44:00,
2013-01-21 19:50:00,34.7,12.2,30.18,NE,35,7.0,7.0,39,0.00,,,0.00,Wunderground v.1.15,2013-01-22 00:50:00,
2013-01-21 19:56:00,34.4,11.4,30.18,NNE,31,6.0,7.0,38,0.00,,,0.00,Wunderground v.1.15,2013-01-22 00:56:00,
2013-01-21 20:01:00,34.2,11.8,30.18,NNE,27,6.0,6.0,39,0.00,,,0.00,Wunderground v.1.15,2013-01-22 01:01:00,
2013-01-21 20:07:00,33.9,11.5,30.18,NE,41,6.0,6.0,39,0.00,,,0.00,Wunderground v.1.15,2013-01-22 01:07:00,
2013-01-21 20:13:00,34.0,11.0,30.18,NNE,22,8.0,12.0,38,0.00,,,0.00,Wunderground v.1.15,2013-01-22 01:13:00,
2013-01-21 20:19:00,33.7,11.3,30.18,NNE,27,8.0,8.0,39,0.00,,,0.00,Wunderground v.1.15,2013-01-22 01:19:00,
2013-01-21 20:26:00,33.5,11.7,30.19,NNE,21,7.0,13.0,40,0.00,,,0.00,Wunderground v.1.15,2013-01-22 01:26:00,
2013-01-21 20:32:00,33.6,11.2,30.19,NNE,32,9.0,12.0,39,0.00,,,0.00,Wunderground v.1.15,2013-01-22 01:32:00,
2013-01-21 20:38:00,33.6,11.8,30.19,NE,41,10.0,12.0,40,0.00,,,0.00,Wunderground v.1.15,2013-01-22 01:38:00,
2013-01-21 20:44:00,33.5,11.7,30.19,NNE,25,9.0,10.0,40,0.00,,,0.00,Wunderground v.1.15,2013-01-22 01:44:00,
2013-01-21 20:50:00,33.3,12.1,30.19,NE,34,9.0,9.0,41,0.00,,,0.00,Wunderground v.1.15,2013-01-22 01:50:00,
2013-01-21 20:56:00,33.0,12.4,30.19,NNE,22,8.0,9.0,42,0.00,,,0.00,Wunderground v.1.15,2013-01-22 01:56:00,
2013-01-21 21:02:00,33.0,12.4,30.20,NNE,26,8.0,11.0,42,0.00,,,0.00,Wunderground v.1.15,2013-01-22 02:02:00,
2013-01-21 21:08:00,32.8,12.2,30.20,NE,42,10.0,12.0,42,0.00,,,0.00,Wunderground v.1.15,2013-01-22 02:08:00,
2013-01-21 21:14:00,32.7,12.6,30.20,NNE,27,10.0,10.0,43,0.00,,,0.00,Wunderground v.1.15,2013-01-22 02:14:00,
2013-01-21 21:20:00,32.6,12.5,30.21,NE,39,9.0,11.0,43,0.00,,,0.00,Wunderground v.1.15,2013-01-22 02:20:00,
2013-01-21 21:26:00,32.4,12.9,30.21,NNE,25,8.0,11.0,44,0.00,,,0.00,Wunderground v.1.15,2013-01-22 02:26:00,
2013-01-21 21:32:00,32.2,12.7,30.22,NE,53,8.0,8.0,44,0.00,,,0.00,Wunderground v.1.15,2013-01-22 02:32:00,
2013-01-21 21:38:00,31.8,12.3,30.22,NNE,29,8.0,11.0,44,0.00,,,0.00,Wunderground v.1.15,2013-01-22 02:38:00,
2013-01-21 21:44:00,31.8,12.8,30.22,NE,39,11.0,12.0,45,0.00,,,0.00,Wunderground v.1.15,2013-01-22 02:44:00,
2013-01-21 21:50:00,31.7,12.8,30.22,NE,44,12.0,12.0,45,0.00,,,0.00,Wunderground v.1.15,2013-01-22 02:50:00,
2013-01-21 21:55:00,31.5,13.1,30.23,NNE,31,10.0,12.0,46,0.00,,,0.00,Wunderground v.1.15,2013-01-22 02:55:00,
2013-01-21 22:01:00,31.2,12.8,30.22,NE,39,9.0,10.0,46,0.00,,,0.00,Wunderground v.1.15,2013-01-22 03:01:00,
2013-01-21 22:08:00,31.0,12.6,30.22,NNE,32,8.0,11.0,46,0.00,,,0.00,Wunderground v.1.15,2013-01-22 03:08:00,
2013-01-21 22:14:00,31.0,12.6,30.23,NNE,21,9.0,10.0,46,0.00,,,0.00,Wunderground v.1.15,2013-01-22 03:14:00,
2013-01-21 22:20:00,30.9,12.0,30.23,NE,35,10.0,10.0,45,0.00,,,0.00,Wunderground v.1.15,2013-01-22 03:20:00,
2013-01-21 22:26:00,30.7,12.3,30.23,NE,51,10.0,10.0,46,0.00,,,0.00,Wunderground v.1.15,2013-01-22 03:26:00,
2013-01-21 22:32:00,30.5,12.2,30.24,ENE,61,9.0,12.0,46,0.00,,,0.00,Wunderground v.1.15,2013-01-22 03:32:00,
2013-01-21 22:37:00,30.4,12.1,30.24,ENE,68,9.0,16.0,46,0.00,,,0.00,Wunderground v.1.15,2013-01-22 03:37:00,
2013-01-21 22:43:00,30.4,10.5,30.24,ESE,119,12.0,14.0,43,0.00,,,0.00,Wunderground v.1.15,2013-01-22 03:43:00,
2013-01-21 22:50:00,30.2,10.4,30.24,NE,46,12.0,16.0,43,0.00,,,0.00,Wunderground v.1.15,2013-01-22 03:50:00,
2013-01-21 22:55:00,30.1,9.2,30.24,NE,50,12.0,16.0,41,0.00,,,0.00,Wunderground v.1.15,2013-01-22 03:55:00,
2013-01-21 23:02:00,29.9,9.6,30.25,NE,44,11.0,12.0,42,0.00,,,0.00,Wunderground v.1.15,2013-01-22 04:02:00,
2013-01-21 23:08:00,29.8,10.0,30.25,NE,42,9.0,13.0,43,0.00,,,0.00,Wunderground v.1.15,2013-01-22 04:08:00,
2013-01-21 23:14:00,29.6,10.3,30.25,NNE,26,7.0,9.0,44,0.00,,,0.00,Wunderground v.1.15,2013-01-22 04:14:00,
2013-01-21 23:20:00,29.3,9.5,30.25,NE,51,6.0,6.0,43,0.00,,,0.00,Wunderground v.1.15,2013-01-22 04:20:00,
2013-01-21 23:26:00,29.0,9.3,30.25,NE,49,8.0,12.0,43,0.00,,,0.00,Wunderground v.1.15,2013-01-22 04:26:00,
2013-01-21 23:32:00,28.9,9.2,30.25,East,79,9.0,10.0,43,0.00,,,0.00,Wunderground v.1.15,2013-01-22 04:32:00,
2013-01-21 23:38:00,28.6,9.4,30.25,North,359,8.0,10.0,44,0.00,,,0.00,Wunderground v.1.15,2013-01-22 04:38:00,
2013-01-21 23:44:00,28.4,8.7,30.25,ENE,61,7.0,17.0,43,0.00,,,0.00,Wunderground v.1.15,2013-01-22 04:44:00,
2013-01-21 23:49:00,28.3,8.1,30.25,East,80,9.0,9.0,42,0.00,,,0.00,Wunderground v.1.15,2013-01-22 04:49:00,
2013-01-21 23:56:00,28.1,9.0,30.25,NNE,20,9.0,12.0,44,0.00,,,0.00,Wunderground v.1.15,2013-01-22 04:56:00,